Erzurum, Turkey

8:40 PM EEST on September 26, 2016 (GMT +0300)
Erzurum | | Change Station

Elev 5768 ft 39.96 °N, 41.17 °E | Updated 20 minutes ago

Scattered Clouds
Scattered Clouds
48 °F
Feels Like 48 °F
N
2
Wind Variable Wind from Variable

Today
High -- | Low -- °F
--% Chance of Precip.
Yesterday
High -- | Low -- °F
Precip. -- in
Pressure 30.12 in
Visibility 6.2 miles
Clouds Scattered Clouds 4000 ft
Dew Point 30 °F
Humidity 50%
Rainfall 0.00 in
Snow Depth Not available.
6:06 AM 6:05 PM
Waning Crescent, 17% visible
METAR LTCE 261720Z VRB02KT 9999 SCT040 09/M01 Q1020 NOSIG RMK RWY08R 00000KT RWY26R VRB02KT RWY08L VRB02KT
Pressure 30.12 in
Visibility 6.2 miles
Clouds Scattered Clouds 4000 ft
Dew Point 30 °F
Humidity 50%
Rainfall 0.00 in
Snow Depth Not available.
6:06 AM 6:05 PM
Waning Crescent, 17% visible
METAR LTCE 261720Z VRB02KT 9999 SCT040 09/M01 Q1020 NOSIG RMK RWY08R 00000KT RWY26R VRB02KT RWY08L VRB02KT

10-Day Weather Forecast

×

Almanac

Astronomy

Sep. 26, 2016 Rise Set
Actual Time
Civil Twilight
Nautical Twilight
Astronomical Twilight
Moon
Length of Visible Light
Length of Day
Tomorrow will be .
, % of the Moon is Illuminated

Today's Extremes

Country Highs Country Lows

Community

WunderPhotos

Upload Photos

1,941,936 photos uploaded!

WunderBlog® & News

Nearby

Air Quality

  Air Quality AQ Index Pollutant
Not available.

Snow Depth

Station Depth Elevation

Earthquake Activity

City Distance Mag. Time & Date
Minimum magnitude displayed is 2.5.

Coastal Water Temperatures

Place Temperature

Stations

Nearby Weather Stations

Station Location Temp. Windchill Dew Point Humidity Wind Precip. Elev Updated Type